sensor_id;sensor_type;location;lat;lon;timestamp;pressure;altitude;pressure_sealevel;temperature;humidity
64053;BME280;50299;49.524;8.536;2023-11-19T00:00:08;100382.09;;;5.29;83.06
64053;BME280;50299;49.524;8.536;2023-11-19T00:02:40;100389.81;;;5.27;83.12
64053;BME280;50299;49.524;8.536;2023-11-19T00:05:08;100397.28;;;5.40;83.03
64053;BME280;50299;49.524;8.536;2023-11-19T00:07:41;100392.84;;;5.45;82.98
64053;BME280;50299;49.524;8.536;2023-11-19T00:10:12;100392.91;;;5.58;82.41
64053;BME280;50299;49.524;8.536;2023-11-19T00:12:44;100402.84;;;5.54;82.55
64053;BME280;50299;49.524;8.536;2023-11-19T00:15:14;100388.16;;;5.45;85.48
64053;BME280;50299;49.524;8.536;2023-11-19T00:17:42;100377.44;;;5.49;84.47
64053;BME280;50299;49.524;8.536;2023-11-19T00:20:19;100371.22;;;5.43;84.89
64053;BME280;50299;49.524;8.536;2023-11-19T00:22:46;100365.63;;;5.29;85.54
64053;BME280;50299;49.524;8.536;2023-11-19T00:25:17;100363.88;;;5.38;84.37
64053;BME280;50299;49.524;8.536;2023-11-19T00:27:44;100362.38;;;5.27;85.50
64053;BME280;50299;49.524;8.536;2023-11-19T00:30:13;100349.50;;;5.28;85.10
64053;BME280;50299;49.524;8.536;2023-11-19T00:32:43;100346.75;;;5.28;85.25
64053;BME280;50299;49.524;8.536;2023-11-19T00:35:14;100351.34;;;5.32;85.11
64053;BME280;50299;49.524;8.536;2023-11-19T00:37:42;100360.75;;;5.45;84.26
64053;BME280;50299;49.524;8.536;2023-11-19T00:40:15;100361.66;;;5.40;85.06
64053;BME280;50299;49.524;8.536;2023-11-19T00:42:43;100364.84;;;5.48;84.51
64053;BME280;50299;49.524;8.536;2023-11-19T00:45:10;100355.03;;;5.41;85.00
64053;BME280;50299;49.524;8.536;2023-11-19T00:47:41;100367.41;;;5.58;84.21
64053;BME280;50299;49.524;8.536;2023-11-19T00:50:08;100357.25;;;5.58;84.45
64053;BME280;50299;49.524;8.536;2023-11-19T00:52:41;100358.75;;;5.70;83.56
64053;BME280;50299;49.524;8.536;2023-11-19T00:55:08;100365.16;;;5.79;83.14
64053;BME280;50299;49.524;8.536;2023-11-19T00:57:35;100359.63;;;5.65;84.09
64053;BME280;50299;49.524;8.536;2023-11-19T01:00:02;100364.22;;;5.51;84.85
64053;BME280;50299;49.524;8.536;2023-11-19T01:02:35;100358.16;;;5.54;84.92
64053;BME280;50299;49.524;8.536;2023-11-19T01:05:01;100362.00;;;5.53;85.13
64053;BME280;50299;49.524;8.536;2023-11-19T01:07:28;100347.84;;;5.46;85.44
64053;BME280;50299;49.524;8.536;2023-11-19T01:09:54;100345.28;;;5.35;86.39
64053;BME280;50299;49.524;8.536;2023-11-19T01:12:21;100338.69;;;5.36;87.32
64053;BME280;50299;49.524;8.536;2023-11-19T01:14:48;100343.50;;;5.45;86.58
64053;BME280;50299;49.524;8.536;2023-11-19T01:17:17;100342.28;;;5.51;86.64
64053;BME280;50299;49.524;8.536;2023-11-19T01:19:43;100343.53;;;5.58;85.95
64053;BME280;50299;49.524;8.536;2023-11-19T01:22:12;100337.13;;;5.49;86.42
64053;BME280;50299;49.524;8.536;2023-11-19T01:24:40;100342.69;;;5.44;86.52
64053;BME280;50299;49.524;8.536;2023-11-19T01:27:07;100355.31;;;5.59;85.83
64053;BME280;50299;49.524;8.536;2023-11-19T01:29:34;100362.97;;;5.62;85.65
64053;BME280;50299;49.524;8.536;2023-11-19T01:32:01;100347.19;;;5.54;85.22
64053;BME280;50299;49.524;8.536;2023-11-19T01:34:27;100348.34;;;5.66;85.77
64053;BME280;50299;49.524;8.536;2023-11-19T01:36:57;100364.78;;;5.85;85.10
64053;BME280;50299;49.524;8.536;2023-11-19T01:39:24;100370.78;;;5.87;84.75
64053;BME280;50299;49.524;8.536;2023-11-19T01:41:50;100363.84;;;5.76;84.78
64053;BME280;50299;49.524;8.536;2023-11-19T01:44:17;100365.97;;;5.79;85.06
64053;BME280;50299;49.524;8.536;2023-11-19T01:46:44;100352.69;;;5.86;85.04
64053;BME280;50299;49.524;8.536;2023-11-19T01:49:15;100306.63;;;5.70;85.60
64053;BME280;50299;49.524;8.536;2023-11-19T01:51:45;100334.06;;;5.70;85.61
64053;BME280;50299;49.524;8.536;2023-11-19T01:54:12;100336.13;;;5.78;85.49
64053;BME280;50299;49.524;8.536;2023-11-19T01:56:47;100327.56;;;5.79;85.64
64053;BME280;50299;49.524;8.536;2023-11-19T01:59:14;100323.47;;;5.96;84.82
64053;BME280;50299;49.524;8.536;2023-11-19T02:01:41;100333.84;;;5.99;84.59
64053;BME280;50299;49.524;8.536;2023-11-19T02:04:09;100332.53;;;5.96;84.72
64053;BME280;50299;49.524;8.536;2023-11-19T02:06:39;100323.53;;;5.77;85.59
64053;BME280;50299;49.524;8.536;2023-11-19T02:09:07;100299.81;;;5.67;86.43
64053;BME280;50299;49.524;8.536;2023-11-19T02:11:34;100276.56;;;5.64;86.53
64053;BME280;50299;49.524;8.536;2023-11-19T02:14:01;100280.81;;;5.71;86.14
64053;BME280;50299;49.524;8.536;2023-11-19T02:16:29;100291.75;;;5.57;86.53
64053;BME280;50299;49.524;8.536;2023-11-19T02:18:56;100293.69;;;5.37;87.89
64053;BME280;50299;49.524;8.536;2023-11-19T02:21:23;100280.31;;;5.69;86.79
64053;BME280;50299;49.524;8.536;2023-11-19T02:23:52;100283.06;;;5.69;86.31
64053;BME280;50299;49.524;8.536;2023-11-19T02:26:25;100281.63;;;5.71;86.10
64053;BME280;50299;49.524;8.536;2023-11-19T02:28:55;100284.31;;;5.76;86.83
64053;BME280;50299;49.524;8.536;2023-11-19T02:31:21;100284.91;;;5.73;86.63
64053;BME280;50299;49.524;8.536;2023-11-19T02:33:49;100283.00;;;5.87;85.75
64053;BME280;50299;49.524;8.536;2023-11-19T02:36:16;100286.38;;;5.84;86.24
64053;BME280;50299;49.524;8.536;2023-11-19T02:38:43;100286.75;;;5.78;86.05
64053;BME280;50299;49.524;8.536;2023-11-19T02:41:09;100282.81;;;5.98;86.00
64053;BME280;50299;49.524;8.536;2023-11-19T02:43:37;100270.28;;;5.91;86.12
64053;BME280;50299;49.524;8.536;2023-11-19T02:46:04;100267.66;;;5.86;86.43
64053;BME280;50299;49.524;8.536;2023-11-19T02:48:37;100269.69;;;5.95;85.87
64053;BME280;50299;49.524;8.536;2023-11-19T02:51:07;100268.25;;;5.83;86.47
64053;BME280;50299;49.524;8.536;2023-11-19T02:53:37;100265.66;;;5.92;86.05
64053;BME280;50299;49.524;8.536;2023-11-19T02:56:04;100271.94;;;5.93;86.36
64053;BME280;50299;49.524;8.536;2023-11-19T02:58:52;100260.88;;;5.98;85.94
64053;BME280;50299;49.524;8.536;2023-11-19T03:01:25;100249.59;;;5.99;86.37
64053;BME280;50299;49.524;8.536;2023-11-19T03:04:08;100233.44;;;5.98;86.24
64053;BME280;50299;49.524;8.536;2023-11-19T03:06:38;100222.25;;;5.80;86.74
64053;BME280;50299;49.524;8.536;2023-11-19T03:09:07;100216.75;;;5.80;87.18
64053;BME280;50299;49.524;8.536;2023-11-19T03:11:37;100229.56;;;5.85;86.83
64053;BME280;50299;49.524;8.536;2023-11-19T03:14:05;100225.38;;;5.87;87.27
64053;BME280;50299;49.524;8.536;2023-11-19T03:16:31;100220.41;;;5.89;87.48
64053;BME280;50299;49.524;8.536;2023-11-19T03:18:58;100222.94;;;5.86;87.49
64053;BME280;50299;49.524;8.536;2023-11-19T03:21:28;100232.72;;;5.92;87.78
64053;BME280;50299;49.524;8.536;2023-11-19T03:23:55;100224.41;;;5.97;87.21
64053;BME280;50299;49.524;8.536;2023-11-19T03:26:22;100228.16;;;6.01;87.42
64053;BME280;50299;49.524;8.536;2023-11-19T03:28:48;100232.84;;;6.14;86.97
64053;BME280;50299;49.524;8.536;2023-11-19T03:31:14;100225.94;;;6.17;86.52
64053;BME280;50299;49.524;8.536;2023-11-19T03:33:41;100226.66;;;6.36;85.88
64053;BME280;50299;49.524;8.536;2023-11-19T03:36:08;100224.19;;;6.49;85.25
64053;BME280;50299;49.524;8.536;2023-11-19T03:38:37;100217.00;;;6.39;85.65
64053;BME280;50299;49.524;8.536;2023-11-19T03:41:13;100231.94;;;6.47;84.99
64053;BME280;50299;49.524;8.536;2023-11-19T03:43:40;100225.22;;;6.53;85.24
64053;BME280;50299;49.524;8.536;2023-11-19T03:46:20;100216.03;;;6.57;85.57
64053;BME280;50299;49.524;8.536;2023-11-19T03:48:48;100217.78;;;6.67;84.74
64053;BME280;50299;49.524;8.536;2023-11-19T03:51:15;100220.09;;;6.74;84.36
64053;BME280;50299;49.524;8.536;2023-11-19T03:53:45;100214.59;;;6.74;83.97
64053;BME280;50299;49.524;8.536;2023-11-19T03:56:12;100208.22;;;6.64;85.45
64053;BME280;50299;49.524;8.536;2023-11-19T03:58:39;100208.81;;;6.61;85.01
64053;BME280;50299;49.524;8.536;2023-11-19T04:01:06;100218.06;;;6.65;84.74
64053;BME280;50299;49.524;8.536;2023-11-19T04:03:37;100205.38;;;6.56;85.84
64053;BME280;50299;49.524;8.536;2023-11-19T04:06:16;100194.88;;;6.72;85.18
64053;BME280;50299;49.524;8.536;2023-11-19T04:08:43;100193.34;;;6.65;85.53
64053;BME280;50299;49.524;8.536;2023-11-19T04:11:10;100206.06;;;6.75;85.10
64053;BME280;50299;49.524;8.536;2023-11-19T04:13:36;100219.28;;;6.73;85.25
64053;BME280;50299;49.524;8.536;2023-11-19T04:16:03;100212.97;;;6.73;85.41
64053;BME280;50299;49.524;8.536;2023-11-19T04:18:30;100212.25;;;6.81;84.87
64053;BME280;50299;49.524;8.536;2023-11-19T04:20:58;100218.78;;;6.71;85.21
64053;BME280;50299;49.524;8.536;2023-11-19T04:23:24;100224.50;;;6.61;86.37
64053;BME280;50299;49.524;8.536;2023-11-19T04:25:51;100216.94;;;6.80;85.51
64053;BME280;50299;49.524;8.536;2023-11-19T04:28:18;100198.09;;;6.74;86.02
64053;BME280;50299;49.524;8.536;2023-11-19T04:30:45;100206.38;;;6.60;86.64
64053;BME280;50299;49.524;8.536;2023-11-19T04:33:11;100196.22;;;6.60;86.48
64053;BME280;50299;49.524;8.536;2023-11-19T04:35:38;100192.34;;;6.61;86.97
64053;BME280;50299;49.524;8.536;2023-11-19T04:38:05;100197.13;;;6.56;87.44
64053;BME280;50299;49.524;8.536;2023-11-19T04:40:32;100189.78;;;6.65;86.98
64053;BME280;50299;49.524;8.536;2023-11-19T04:43:02;100195.28;;;6.79;86.53
64053;BME280;50299;49.524;8.536;2023-11-19T04:45:28;100181.34;;;6.75;86.93
64053;BME280;50299;49.524;8.536;2023-11-19T04:47:55;100190.69;;;6.74;86.54
64053;BME280;50299;49.524;8.536;2023-11-19T04:50:21;100182.13;;;6.76;86.63
64053;BME280;50299;49.524;8.536;2023-11-19T04:52:48;100174.34;;;6.92;86.68
64053;BME280;50299;49.524;8.536;2023-11-19T04:55:14;100177.31;;;6.95;86.00
64053;BME280;50299;49.524;8.536;2023-11-19T04:57:41;100187.38;;;6.86;86.53
64053;BME280;50299;49.524;8.536;2023-11-19T05:00:08;100183.41;;;6.92;86.96
64053;BME280;50299;49.524;8.536;2023-11-19T05:02:37;100189.59;;;6.98;86.11
64053;BME280;50299;49.524;8.536;2023-11-19T05:05:04;100187.56;;;7.03;86.69
64053;BME280;50299;49.524;8.536;2023-11-19T05:07:31;100196.28;;;7.05;86.44
64053;BME280;50299;49.524;8.536;2023-11-19T05:09:58;100194.59;;;7.18;85.60
64053;BME280;50299;49.524;8.536;2023-11-19T05:12:24;100210.09;;;7.14;86.14
64053;BME280;50299;49.524;8.536;2023-11-19T05:14:51;100198.53;;;7.26;85.38
64053;BME280;50299;49.524;8.536;2023-11-19T05:17:18;100207.72;;;7.21;85.95
64053;BME280;50299;49.524;8.536;2023-11-19T05:19:45;100205.91;;;7.17;86.45
64053;BME280;50299;49.524;8.536;2023-11-19T05:22:12;100197.41;;;7.27;85.83
64053;BME280;50299;49.524;8.536;2023-11-19T05:24:39;100194.16;;;7.25;86.13
64053;BME280;50299;49.524;8.536;2023-11-19T05:27:07;100199.34;;;7.26;86.00
64053;BME280;50299;49.524;8.536;2023-11-19T05:29:37;100192.97;;;7.39;85.39
64053;BME280;50299;49.524;8.536;2023-11-19T05:32:05;100204.75;;;7.40;85.71
64053;BME280;50299;49.524;8.536;2023-11-19T05:34:32;100191.72;;;7.46;85.38
64053;BME280;50299;49.524;8.536;2023-11-19T05:36:58;100195.09;;;7.43;85.24
64053;BME280;50299;49.524;8.536;2023-11-19T05:39:25;100190.72;;;7.42;85.32
64053;BME280;50299;49.524;8.536;2023-11-19T05:41:55;100185.34;;;7.36;86.42
64053;BME280;50299;49.524;8.536;2023-11-19T05:44:21;100181.28;;;7.34;86.65
64053;BME280;50299;49.524;8.536;2023-11-19T05:46:48;100172.97;;;7.25;87.43
64053;BME280;50299;49.524;8.536;2023-11-19T05:49:15;100173.41;;;7.41;86.12
64053;BME280;50299;49.524;8.536;2023-11-19T05:51:41;100176.41;;;7.31;86.81
64053;BME280;50299;49.524;8.536;2023-11-19T05:54:09;100165.41;;;7.31;87.04
64053;BME280;50299;49.524;8.536;2023-11-19T05:56:36;100160.22;;;7.29;87.41
64053;BME280;50299;49.524;8.536;2023-11-19T05:59:02;100163.47;;;7.31;87.03
64053;BME280;50299;49.524;8.536;2023-11-19T06:01:36;100157.34;;;7.34;87.03
64053;BME280;50299;49.524;8.536;2023-11-19T06:04:02;100167.72;;;7.37;86.41
64053;BME280;50299;49.524;8.536;2023-11-19T06:06:29;100167.41;;;7.39;86.93
64053;BME280;50299;49.524;8.536;2023-11-19T06:08:56;100158.94;;;7.49;86.26
64053;BME280;50299;49.524;8.536;2023-11-19T06:11:22;100170.13;;;7.53;86.46
64053;BME280;50299;49.524;8.536;2023-11-19T06:13:49;100172.53;;;7.54;85.96
64053;BME280;50299;49.524;8.536;2023-11-19T06:16:17;100170.28;;;7.56;86.27
64053;BME280;50299;49.524;8.536;2023-11-19T06:18:45;100180.41;;;7.70;85.75
64053;BME280;50299;49.524;8.536;2023-11-19T06:21:12;100185.91;;;7.70;85.63
64053;BME280;50299;49.524;8.536;2023-11-19T06:23:38;100191.13;;;7.80;85.34
64053;BME280;50299;49.524;8.536;2023-11-19T06:26:11;100191.91;;;7.80;85.74
64053;BME280;50299;49.524;8.536;2023-11-19T06:28:40;100187.69;;;7.74;85.72
64053;BME280;50299;49.524;8.536;2023-11-19T06:31:07;100182.69;;;7.76;85.70
64053;BME280;50299;49.524;8.536;2023-11-19T06:33:34;100178.31;;;7.75;86.12
64053;BME280;50299;49.524;8.536;2023-11-19T06:36:00;100178.72;;;7.91;84.88
64053;BME280;50299;49.524;8.536;2023-11-19T06:38:26;100169.59;;;7.82;85.63
64053;BME280;50299;49.524;8.536;2023-11-19T06:40:59;100174.75;;;7.75;85.82
64053;BME280;50299;49.524;8.536;2023-11-19T06:43:25;100181.28;;;7.87;85.63
64053;BME280;50299;49.524;8.536;2023-11-19T06:45:55;100177.19;;;7.76;85.56
64053;BME280;50299;49.524;8.536;2023-11-19T06:48:26;100172.88;;;7.93;85.14
64053;BME280;50299;49.524;8.536;2023-11-19T06:50:57;100181.09;;;7.84;85.39
64053;BME280;50299;49.524;8.536;2023-11-19T06:53:24;100200.41;;;7.93;85.47
64053;BME280;50299;49.524;8.536;2023-11-19T06:55:51;100213.53;;;7.96;84.95
64053;BME280;50299;49.524;8.536;2023-11-19T06:58:20;100201.06;;;7.89;84.99
64053;BME280;50299;49.524;8.536;2023-11-19T07:00:49;100194.50;;;7.77;84.93
64053;BME280;50299;49.524;8.536;2023-11-19T07:03:25;100207.47;;;7.85;84.55
64053;BME280;50299;49.524;8.536;2023-11-19T07:06:00;100215.25;;;7.83;84.96
64053;BME280;50299;49.524;8.536;2023-11-19T07:08:26;100216.28;;;7.96;84.49
64053;BME280;50299;49.524;8.536;2023-11-19T07:10:54;100227.34;;;8.04;84.18
64053;BME280;50299;49.524;8.536;2023-11-19T07:13:28;100230.41;;;8.03;84.67
64053;BME280;50299;49.524;8.536;2023-11-19T07:15:57;100221.41;;;8.20;84.36
64053;BME280;50299;49.524;8.536;2023-11-19T07:18:31;100217.47;;;8.12;84.23
64053;BME280;50299;49.524;8.536;2023-11-19T07:20:58;100221.03;;;8.12;84.39
64053;BME280;50299;49.524;8.536;2023-11-19T07:23:35;100221.25;;;8.25;83.34
64053;BME280;50299;49.524;8.536;2023-11-19T07:26:05;100217.34;;;8.17;83.58
64053;BME280;50299;49.524;8.536;2023-11-19T07:28:38;100225.63;;;8.26;82.48
64053;BME280;50299;49.524;8.536;2023-11-19T07:31:14;100221.84;;;8.13;83.29
64053;BME280;50299;49.524;8.536;2023-11-19T07:33:51;100230.66;;;8.24;83.04
64053;BME280;50299;49.524;8.536;2023-11-19T07:36:26;100231.50;;;8.42;82.70
64053;BME280;50299;49.524;8.536;2023-11-19T07:39:04;100232.19;;;8.47;82.58
64053;BME280;50299;49.524;8.536;2023-11-19T07:41:49;100233.00;;;8.48;82.92
64053;BME280;50299;49.524;8.536;2023-11-19T07:44:16;100244.97;;;8.43;83.16
64053;BME280;50299;49.524;8.536;2023-11-19T07:46:48;100231.50;;;8.33;83.61
64053;BME280;50299;49.524;8.536;2023-11-19T07:49:20;100237.69;;;8.47;83.83
64053;BME280;50299;49.524;8.536;2023-11-19T07:51:47;100239.34;;;8.57;82.79
64053;BME280;50299;49.524;8.536;2023-11-19T07:54:19;100240.47;;;8.56;82.76
64053;BME280;50299;49.524;8.536;2023-11-19T07:57:09;100238.19;;;8.58;82.92
64053;BME280;50299;49.524;8.536;2023-11-19T07:59:41;100246.63;;;8.53;83.41
64053;BME280;50299;49.524;8.536;2023-11-19T08:02:11;100244.50;;;8.58;83.42
64053;BME280;50299;49.524;8.536;2023-11-19T08:04:42;100247.09;;;8.55;83.07
64053;BME280;50299;49.524;8.536;2023-11-19T08:07:12;100254.38;;;8.51;83.58
64053;BME280;50299;49.524;8.536;2023-11-19T08:09:42;100260.41;;;8.53;84.01
64053;BME280;50299;49.524;8.536;2023-11-19T08:12:13;100260.53;;;8.48;84.93
64053;BME280;50299;49.524;8.536;2023-11-19T08:14:47;100267.50;;;8.45;85.76
64053;BME280;50299;49.524;8.536;2023-11-19T08:17:16;100264.25;;;8.43;86.22
64053;BME280;50299;49.524;8.536;2023-11-19T08:19:48;100269.78;;;8.52;86.30
64053;BME280;50299;49.524;8.536;2023-11-19T08:33:07;100249.66;;;9.17;85.22
64053;BME280;50299;49.524;8.536;2023-11-19T08:35:38;100244.59;;;9.45;83.83
64053;BME280;50299;49.524;8.536;2023-11-19T08:38:18;100247.50;;;9.83;82.39
64053;BME280;50299;49.524;8.536;2023-11-19T08:40:49;100253.97;;;9.88;81.51
64053;BME280;50299;49.524;8.536;2023-11-19T08:43:20;100247.97;;;9.77;80.97
64053;BME280;50299;49.524;8.536;2023-11-19T08:45:47;100256.75;;;9.88;81.06
64053;BME280;50299;49.524;8.536;2023-11-19T08:48:21;100262.13;;;9.67;80.53
64053;BME280;50299;49.524;8.536;2023-11-19T08:53:31;100260.47;;;9.66;81.42
64053;BME280;50299;49.524;8.536;2023-11-19T08:56:00;100262.59;;;9.77;81.36
64053;BME280;50299;49.524;8.536;2023-11-19T08:58:32;100254.94;;;9.66;81.06
64053;BME280;50299;49.524;8.536;2023-11-19T09:01:06;100265.53;;;9.63;80.94
64053;BME280;50299;49.524;8.536;2023-11-19T09:03:34;100266.00;;;9.66;81.13
64053;BME280;50299;49.524;8.536;2023-11-19T09:06:03;100269.56;;;9.83;80.00
64053;BME280;50299;49.524;8.536;2023-11-19T09:08:36;100264.88;;;9.75;80.69
64053;BME280;50299;49.524;8.536;2023-11-19T09:11:09;100275.22;;;9.96;nan
64053;BME280;50299;49.524;8.536;2023-11-19T09:13:39;100281.72;;;10.00;80.18
64053;BME280;50299;49.524;8.536;2023-11-19T09:16:06;100298.22;;;10.17;79.77
64053;BME280;50299;49.524;8.536;2023-11-19T09:18:32;100285.88;;;10.15;79.84
64053;BME280;50299;49.524;8.536;2023-11-19T09:21:03;100272.94;;;9.98;80.38
64053;BME280;50299;49.524;8.536;2023-11-19T09:23:33;100277.75;;;10.18;79.55
64053;BME280;50299;49.524;8.536;2023-11-19T09:26:09;100276.44;;;10.16;80.09
64053;BME280;50299;49.524;8.536;2023-11-19T09:28:41;100275.09;;;10.30;80.97
64053;BME280;50299;49.524;8.536;2023-11-19T09:31:18;100282.91;;;10.67;80.50
64053;BME280;50299;49.524;8.536;2023-11-19T09:33:54;100283.84;;;10.71;79.07
64053;BME280;50299;49.524;8.536;2023-11-19T09:36:59;100280.44;;;10.65;78.69
64053;BME280;50299;49.524;8.536;2023-11-19T09:39:35;100266.00;;;10.59;77.69
64053;BME280;50299;49.524;8.536;2023-11-19T09:42:03;100276.75;;;10.61;76.81
64053;BME280;50299;49.524;8.536;2023-11-19T09:45:17;100278.31;;;10.71;76.48
64053;BME280;50299;49.524;8.536;2023-11-19T09:48:02;100278.81;;;10.64;76.14
64053;BME280;50299;49.524;8.536;2023-11-19T09:50:34;100271.09;;;10.57;74.43
64053;BME280;50299;49.524;8.536;2023-11-19T09:53:10;100283.91;;;10.62;74.65
64053;BME280;50299;49.524;8.536;2023-11-19T09:55:47;100281.59;;;10.64;75.29
64053;BME280;50299;49.524;8.536;2023-11-19T09:58:23;100275.75;;;10.66;75.29
64053;BME280;50299;49.524;8.536;2023-11-19T10:00:52;100267.50;;;10.57;74.67
64053;BME280;50299;49.524;8.536;2023-11-19T10:03:47;100254.81;;;10.56;73.41
64053;BME280;50299;49.524;8.536;2023-11-19T10:06:17;100265.72;;;10.52;74.20
64053;BME280;50299;49.524;8.536;2023-11-19T10:08:47;100274.97;;;10.56;73.44
64053;BME280;50299;49.524;8.536;2023-11-19T10:11:17;100272.25;;;10.48;74.45
64053;BME280;50299;49.524;8.536;2023-11-19T10:13:44;100271.78;;;10.46;74.49
64053;BME280;50299;49.524;8.536;2023-11-19T10:16:20;100267.91;;;10.38;74.42
64053;BME280;50299;49.524;8.536;2023-11-19T10:18:51;100268.81;;;10.51;75.36
64053;BME280;50299;49.524;8.536;2023-11-19T10:21:20;100272.88;;;10.53;74.38
64053;BME280;50299;49.524;8.536;2023-11-19T10:23:57;100268.31;;;10.57;74.58
64053;BME280;50299;49.524;8.536;2023-11-19T10:26:31;100261.63;;;10.58;74.35
64053;BME280;50299;49.524;8.536;2023-11-19T10:29:02;100267.25;;;10.71;75.89
64053;BME280;50299;49.524;8.536;2023-11-19T10:31:35;100263.81;;;10.82;74.51
64053;BME280;50299;49.524;8.536;2023-11-19T10:34:24;100260.91;;;10.70;73.46
64053;BME280;50299;49.524;8.536;2023-11-19T10:37:30;100256.13;;;11.09;72.77
64053;BME280;50299;49.524;8.536;2023-11-19T10:39:59;100247.44;;;11.19;72.66
64053;BME280;50299;49.524;8.536;2023-11-19T10:42:34;100241.91;;;11.52;71.05
64053;BME280;50299;49.524;8.536;2023-11-19T10:45:26;100237.09;;;11.95;69.91
64053;BME280;50299;49.524;8.536;2023-11-19T10:47:56;100237.09;;;11.95;68.28
64053;BME280;50299;49.524;8.536;2023-11-19T10:50:43;100238.03;;;12.23;68.65
64053;BME280;50299;49.524;8.536;2023-11-19T10:53:13;100236.66;;;12.54;68.68
64053;BME280;50299;49.524;8.536;2023-11-19T10:55:47;100237.09;;;12.93;67.19
64053;BME280;50299;49.524;8.536;2023-11-19T10:58:16;100247.00;;;13.06;66.42
64053;BME280;50299;49.524;8.536;2023-11-19T11:00:51;100241.84;;;12.92;64.99
64053;BME280;50299;49.524;8.536;2023-11-19T11:03:22;100244.06;;;12.74;64.70
64053;BME280;50299;49.524;8.536;2023-11-19T11:05:55;100239.91;;;12.56;64.64
64053;BME280;50299;49.524;8.536;2023-11-19T11:08:30;100238.28;;;12.55;65.93
64053;BME280;50299;49.524;8.536;2023-11-19T11:10:59;100226.97;;;12.48;65.08
64053;BME280;50299;49.524;8.536;2023-11-19T11:13:32;100237.56;;;12.46;65.81
64053;BME280;50299;49.524;8.536;2023-11-19T11:16:00;100236.44;;;12.34;65.73
64053;BME280;50299;49.524;8.536;2023-11-19T11:18:31;100230.41;;;12.32;65.42
64053;BME280;50299;49.524;8.536;2023-11-19T11:21:17;100233.41;;;12.03;64.98
64053;BME280;50299;49.524;8.536;2023-11-19T11:36:09;100230.78;;;11.40;69.72
64053;BME280;50299;49.524;8.536;2023-11-19T11:38:41;100222.94;;;11.42;69.06
64053;BME280;50299;49.524;8.536;2023-11-19T11:41:16;100226.16;;;11.32;69.68
64053;BME280;50299;49.524;8.536;2023-11-19T11:43:55;100219.03;;;11.43;69.63
64053;BME280;50299;49.524;8.536;2023-11-19T11:49:06;100220.47;;;11.62;68.61
64053;BME280;50299;49.524;8.536;2023-11-19T11:54:33;100219.53;;;11.91;67.69
64053;BME280;50299;49.524;8.536;2023-11-19T11:57:10;100204.22;;;12.05;67.30
64053;BME280;50299;49.524;8.536;2023-11-19T11:59:49;100215.84;;;11.99;65.68
64053;BME280;50299;49.524;8.536;2023-11-19T12:02:19;100226.47;;;12.09;65.57
64053;BME280;50299;49.524;8.536;2023-11-19T12:04:49;100219.09;;;12.25;66.63
64053;BME280;50299;49.524;8.536;2023-11-19T12:07:23;100214.47;;;12.54;65.48
64053;BME280;50299;49.524;8.536;2023-11-19T12:10:06;100217.72;;;12.80;66.95
64053;BME280;50299;49.524;8.536;2023-11-19T12:12:39;100210.84;;;12.90;64.88
64053;BME280;50299;49.524;8.536;2023-11-19T12:15:08;100203.19;;;12.99;63.02
64053;BME280;50299;49.524;8.536;2023-11-19T12:17:49;100203.31;;;13.03;63.32
64053;BME280;50299;49.524;8.536;2023-11-19T12:20:20;100211.03;;;13.10;63.73
64053;BME280;50299;49.524;8.536;2023-11-19T12:22:52;100210.09;;;13.18;63.76
64053;BME280;50299;49.524;8.536;2023-11-19T12:25:20;100199.25;;;13.13;60.64
64053;BME280;50299;49.524;8.536;2023-11-19T12:27:48;100209.09;;;12.98;61.38
64053;BME280;50299;49.524;8.536;2023-11-19T12:30:24;100211.63;;;13.03;61.92
64053;BME280;50299;49.524;8.536;2023-11-19T12:32:52;100200.13;;;12.89;59.68
64053;BME280;50299;49.524;8.536;2023-11-19T12:35:32;100194.44;;;12.97;60.10
64053;BME280;50299;49.524;8.536;2023-11-19T12:37:58;100197.50;;;12.80;59.54
64053;BME280;50299;49.524;8.536;2023-11-19T12:40:29;100187.75;;;12.86;60.12
64053;BME280;50299;49.524;8.536;2023-11-19T12:42:58;100186.09;;;12.97;59.94
64053;BME280;50299;49.524;8.536;2023-11-19T12:45:35;100183.63;;;12.80;57.42
64053;BME280;50299;49.524;8.536;2023-11-19T12:48:05;100192.53;;;12.73;58.45
64053;BME280;50299;49.524;8.536;2023-11-19T12:50:56;100182.81;;;12.79;58.57
64053;BME280;50299;49.524;8.536;2023-11-19T12:53:27;100180.50;;;12.69;59.97
64053;BME280;50299;49.524;8.536;2023-11-19T12:56:17;100170.09;;;12.54;59.70
64053;BME280;50299;49.524;8.536;2023-11-19T12:58:44;100172.88;;;12.54;59.93
64053;BME280;50299;49.524;8.536;2023-11-19T13:01:20;100162.38;;;12.59;60.24
64053;BME280;50299;49.524;8.536;2023-11-19T13:03:53;100162.28;;;12.44;59.25
64053;BME280;50299;49.524;8.536;2023-11-19T13:06:19;100167.25;;;12.38;58.83
64053;BME280;50299;49.524;8.536;2023-11-19T13:08:52;100174.44;;;12.27;59.42
64053;BME280;50299;49.524;8.536;2023-11-19T13:11:34;100164.72;;;12.08;54.85
64053;BME280;50299;49.524;8.536;2023-11-19T13:14:05;100167.59;;;12.00;58.27
64053;BME280;50299;49.524;8.536;2023-11-19T13:16:37;100176.94;;;11.83;59.04
64053;BME280;50299;49.524;8.536;2023-11-19T13:19:06;100173.72;;;11.81;58.65
64053;BME280;50299;49.524;8.536;2023-11-19T13:21:50;100174.41;;;11.90;59.46
64053;BME280;50299;49.524;8.536;2023-11-19T13:24:20;100162.53;;;12.02;58.73
64053;BME280;50299;49.524;8.536;2023-11-19T13:26:52;100158.59;;;11.91;59.20
64053;BME280;50299;49.524;8.536;2023-11-19T13:29:22;100159.28;;;11.88;58.58
64053;BME280;50299;49.524;8.536;2023-11-19T13:31:51;100151.47;;;11.90;58.50
64053;BME280;50299;49.524;8.536;2023-11-19T13:34:24;100153.31;;;11.86;58.47
64053;BME280;50299;49.524;8.536;2023-11-19T13:36:55;100157.22;;;11.84;60.30
64053;BME280;50299;49.524;8.536;2023-11-19T13:39:29;100152.38;;;11.94;60.49
64053;BME280;50299;49.524;8.536;2023-11-19T13:41:58;100149.38;;;11.99;59.44
64053;BME280;50299;49.524;8.536;2023-11-19T13:44:30;100151.47;;;12.14;58.02
64053;BME280;50299;49.524;8.536;2023-11-19T13:47:04;100149.72;;;12.34;58.01